sensor_id;sensor_type;location;lat;lon;timestamp;temperature;humidity
37426;DHT22;23285;50.180;7.036;2022-10-16T00:02:01;15.60;99.90
37426;DHT22;23285;50.180;7.036;2022-10-16T00:04:46;15.60;99.90
37426;DHT22;23285;50.180;7.036;2022-10-16T00:07:31;15.60;99.90
37426;DHT22;23285;50.180;7.036;2022-10-16T00:10:16;15.40;99.90
37426;DHT22;23285;50.180;7.036;2022-10-16T00:13:02;15.50;99.90
37426;DHT22;23285;50.180;7.036;2022-10-16T00:15:46;15.50;99.90
37426;DHT22;23285;50.180;7.036;2022-10-16T00:18:31;15.30;99.90
37426;DHT22;23285;50.180;7.036;2022-10-16T00:21:20;15.60;99.90
37426;DHT22;23285;50.180;7.036;2022-10-16T00:24:24;15.50;99.90
37426;DHT22;23285;50.180;7.036;2022-10-16T00:27:09;15.70;99.90
37426;DHT22;23285;50.180;7.036;2022-10-16T00:35:25;15.50;99.90
37426;DHT22;23285;50.180;7.036;2022-10-16T00:38:10;15.50;99.90
37426;DHT22;23285;50.180;7.036;2022-10-16T00:40:55;15.30;99.90
37426;DHT22;23285;50.180;7.036;2022-10-16T00:43:52;15.40;99.90
37426;DHT22;23285;50.180;7.036;2022-10-16T00:46:40;15.80;99.90
37426;DHT22;23285;50.180;7.036;2022-10-16T00:49:25;15.60;99.90
37426;DHT22;23285;50.180;7.036;2022-10-16T00:54:56;15.50;99.90
37426;DHT22;23285;50.180;7.036;2022-10-16T00:57:42;15.30;99.90
37426;DHT22;23285;50.180;7.036;2022-10-16T01:00:28;15.30;99.90
37426;DHT22;23285;50.180;7.036;2022-10-16T01:03:29;15.50;99.90
37426;DHT22;23285;50.180;7.036;2022-10-16T01:12:45;15.20;99.90
37426;DHT22;23285;50.180;7.036;2022-10-16T01:15:38;15.40;99.90
37426;DHT22;23285;50.180;7.036;2022-10-16T01:21:36;15.60;99.90
37426;DHT22;23285;50.180;7.036;2022-10-16T01:27:25;15.30;99.90
37426;DHT22;23285;50.180;7.036;2022-10-16T01:30:16;15.40;99.90
37426;DHT22;23285;50.180;7.036;2022-10-16T01:35:59;15.10;99.90
37426;DHT22;23285;50.180;7.036;2022-10-16T01:38:48;15.30;99.90
37426;DHT22;23285;50.180;7.036;2022-10-16T01:41:38;15.10;99.90
37426;DHT22;23285;50.180;7.036;2022-10-16T01:44:30;15.20;99.90
37426;DHT22;23285;50.180;7.036;2022-10-16T01:50:03;15.10;99.90
37426;DHT22;23285;50.180;7.036;2022-10-16T01:52:51;15.00;99.90
37426;DHT22;23285;50.180;7.036;2022-10-16T01:55:43;15.20;99.90
37426;DHT22;23285;50.180;7.036;2022-10-16T02:01:21;15.10;99.90
37426;DHT22;23285;50.180;7.036;2022-10-16T02:04:17;15.00;99.90
37426;DHT22;23285;50.180;7.036;2022-10-16T02:07:04;15.00;99.90
37426;DHT22;23285;50.180;7.036;2022-10-16T02:09:50;15.20;99.90
37426;DHT22;23285;50.180;7.036;2022-10-16T02:12:37;14.90;99.90
37426;DHT22;23285;50.180;7.036;2022-10-16T02:15:24;15.10;99.90
37426;DHT22;23285;50.180;7.036;2022-10-16T02:20:59;14.90;99.90
37426;DHT22;23285;50.180;7.036;2022-10-16T02:26:41;15.20;99.90
37426;DHT22;23285;50.180;7.036;2022-10-16T02:29:27;15.10;99.90
37426;DHT22;23285;50.180;7.036;2022-10-16T02:32:13;15.10;99.90
37426;DHT22;23285;50.180;7.036;2022-10-16T02:37:48;15.10;99.90
37426;DHT22;23285;50.180;7.036;2022-10-16T02:40:34;15.20;99.90
37426;DHT22;23285;50.180;7.036;2022-10-16T02:43:20;15.40;99.90
37426;DHT22;23285;50.180;7.036;2022-10-16T02:46:05;15.60;99.90
37426;DHT22;23285;50.180;7.036;2022-10-16T02:48:50;15.40;99.90
37426;DHT22;23285;50.180;7.036;2022-10-16T02:54:21;15.60;99.90
37426;DHT22;23285;50.180;7.036;2022-10-16T02:57:06;15.30;99.90
37426;DHT22;23285;50.180;7.036;2022-10-16T03:02:37;15.00;99.90
37426;DHT22;23285;50.180;7.036;2022-10-16T03:05:22;15.20;99.90
37426;DHT22;23285;50.180;7.036;2022-10-16T03:08:07;15.30;99.90
37426;DHT22;23285;50.180;7.036;2022-10-16T03:10:52;15.10;99.90
37426;DHT22;23285;50.180;7.036;2022-10-16T03:16:23;15.10;99.90
37426;DHT22;23285;50.180;7.036;2022-10-16T03:19:07;15.10;99.90
37426;DHT22;23285;50.180;7.036;2022-10-16T03:21:53;15.20;99.90
37426;DHT22;23285;50.180;7.036;2022-10-16T03:24:38;15.10;99.90
37426;DHT22;23285;50.180;7.036;2022-10-16T03:30:09;14.80;99.90
37426;DHT22;23285;50.180;7.036;2022-10-16T03:38:24;14.40;99.90
37426;DHT22;23285;50.180;7.036;2022-10-16T04:00:28;14.60;99.90
37426;DHT22;23285;50.180;7.036;2022-10-16T04:03:14;14.70;99.90
37426;DHT22;23285;50.180;7.036;2022-10-16T04:11:30;14.50;99.90
37426;DHT22;23285;50.180;7.036;2022-10-16T04:14:15;14.60;99.90
37426;DHT22;23285;50.180;7.036;2022-10-16T04:17:00;14.60;99.90
37426;DHT22;23285;50.180;7.036;2022-10-16T04:19:45;14.90;99.90
37426;DHT22;23285;50.180;7.036;2022-10-16T04:22:30;14.90;99.90
37426;DHT22;23285;50.180;7.036;2022-10-16T04:28:01;14.50;99.90
37426;DHT22;23285;50.180;7.036;2022-10-16T04:30:46;14.50;99.90
37426;DHT22;23285;50.180;7.036;2022-10-16T04:41:47;14.40;99.90
37426;DHT22;23285;50.180;7.036;2022-10-16T04:44:32;14.20;99.90
37426;DHT22;23285;50.180;7.036;2022-10-16T04:47:18;14.50;99.90
37426;DHT22;23285;50.180;7.036;2022-10-16T04:50:03;14.80;99.90
37426;DHT22;23285;50.180;7.036;2022-10-16T04:52:48;14.70;99.90
37426;DHT22;23285;50.180;7.036;2022-10-16T04:55:33;14.80;99.90
37426;DHT22;23285;50.180;7.036;2022-10-16T05:06:34;14.60;99.90
37426;DHT22;23285;50.180;7.036;2022-10-16T05:09:19;14.70;99.90
37426;DHT22;23285;50.180;7.036;2022-10-16T05:12:05;14.70;99.90
37426;DHT22;23285;50.180;7.036;2022-10-16T05:14:50;14.70;99.90
37426;DHT22;23285;50.180;7.036;2022-10-16T05:17:35;14.70;99.90
37426;DHT22;23285;50.180;7.036;2022-10-16T05:20:20;14.80;99.90
37426;DHT22;23285;50.180;7.036;2022-10-16T05:36:59;14.70;99.90
37426;DHT22;23285;50.180;7.036;2022-10-16T05:39:44;14.60;99.90
37426;DHT22;23285;50.180;7.036;2022-10-16T05:45:14;14.80;99.90
37426;DHT22;23285;50.180;7.036;2022-10-16T05:50:45;14.60;99.90
37426;DHT22;23285;50.180;7.036;2022-10-16T05:53:31;14.70;99.90
37426;DHT22;23285;50.180;7.036;2022-10-16T05:56:17;14.90;99.90
37426;DHT22;23285;50.180;7.036;2022-10-16T05:59:03;15.00;99.90
37426;DHT22;23285;50.180;7.036;2022-10-16T06:01:49;15.10;99.90
37426;DHT22;23285;50.180;7.036;2022-10-16T06:04:34;14.90;99.90
37426;DHT22;23285;50.180;7.036;2022-10-16T06:07:19;14.70;99.90
37426;DHT22;23285;50.180;7.036;2022-10-16T06:10:05;14.80;99.90
37426;DHT22;23285;50.180;7.036;2022-10-16T06:12:50;14.60;99.90
37426;DHT22;23285;50.180;7.036;2022-10-16T06:15:35;14.40;99.90
37426;DHT22;23285;50.180;7.036;2022-10-16T06:18:20;14.40;99.90
37426;DHT22;23285;50.180;7.036;2022-10-16T06:21:14;14.50;99.90
37426;DHT22;23285;50.180;7.036;2022-10-16T06:26:46;14.90;99.90
37426;DHT22;23285;50.180;7.036;2022-10-16T06:29:31;15.00;99.90
37426;DHT22;23285;50.180;7.036;2022-10-16T06:35:02;15.10;99.90
37426;DHT22;23285;50.180;7.036;2022-10-16T06:37:47;14.90;99.90
37426;DHT22;23285;50.180;7.036;2022-10-16T06:40:32;14.90;99.90
37426;DHT22;23285;50.180;7.036;2022-10-16T06:43:17;14.80;99.90
37426;DHT22;23285;50.180;7.036;2022-10-16T06:46:02;14.80;99.90
37426;DHT22;23285;50.180;7.036;2022-10-16T06:48:48;15.20;99.90
37426;DHT22;23285;50.180;7.036;2022-10-16T06:51:33;15.00;99.90
37426;DHT22;23285;50.180;7.036;2022-10-16T06:54:21;15.00;99.90
37426;DHT22;23285;50.180;7.036;2022-10-16T06:57:06;14.90;99.90
37426;DHT22;23285;50.180;7.036;2022-10-16T06:59:51;15.00;99.90
37426;DHT22;23285;50.180;7.036;2022-10-16T07:02:36;15.00;99.90
37426;DHT22;23285;50.180;7.036;2022-10-16T07:05:21;14.90;99.90
37426;DHT22;23285;50.180;7.036;2022-10-16T07:08:06;14.90;99.90
37426;DHT22;23285;50.180;7.036;2022-10-16T07:13:44;15.10;99.90
37426;DHT22;23285;50.180;7.036;2022-10-16T07:16:32;15.00;99.90
37426;DHT22;23285;50.180;7.036;2022-10-16T07:19:17;14.90;99.90
37426;DHT22;23285;50.180;7.036;2022-10-16T07:22:02;15.10;99.90
37426;DHT22;23285;50.180;7.036;2022-10-16T07:24:48;15.00;99.90
37426;DHT22;23285;50.180;7.036;2022-10-16T07:27:33;15.00;99.90
37426;DHT22;23285;50.180;7.036;2022-10-16T07:30:17;15.00;99.90
37426;DHT22;23285;50.180;7.036;2022-10-16T07:35:52;15.20;99.90
37426;DHT22;23285;50.180;7.036;2022-10-16T07:41:23;15.00;99.90
37426;DHT22;23285;50.180;7.036;2022-10-16T07:44:08;14.80;99.90
37426;DHT22;23285;50.180;7.036;2022-10-16T07:52:24;15.30;99.90
37426;DHT22;23285;50.180;7.036;2022-10-16T07:55:09;15.20;99.90
37426;DHT22;23285;50.180;7.036;2022-10-16T07:57:55;15.40;99.90
37426;DHT22;23285;50.180;7.036;2022-10-16T08:06:11;15.20;99.90
37426;DHT22;23285;50.180;7.036;2022-10-16T08:14:27;15.20;99.90
37426;DHT22;23285;50.180;7.036;2022-10-16T08:17:14;15.10;99.90
37426;DHT22;23285;50.180;7.036;2022-10-16T08:19:59;15.20;99.90
37426;DHT22;23285;50.180;7.036;2022-10-16T08:22:44;15.30;99.90
37426;DHT22;23285;50.180;7.036;2022-10-16T08:25:29;15.10;99.90
37426;DHT22;23285;50.180;7.036;2022-10-16T08:28:14;15.40;99.90
37426;DHT22;23285;50.180;7.036;2022-10-16T08:31:11;15.30;99.90
37426;DHT22;23285;50.180;7.036;2022-10-16T08:33:57;15.30;99.90
37426;DHT22;23285;50.180;7.036;2022-10-16T08:36:42;15.20;99.90
37426;DHT22;23285;50.180;7.036;2022-10-16T08:39:27;15.20;99.90
37426;DHT22;23285;50.180;7.036;2022-10-16T08:51:19;15.20;99.90
37426;DHT22;23285;50.180;7.036;2022-10-16T08:54:22;15.20;99.90
37426;DHT22;23285;50.180;7.036;2022-10-16T08:57:17;15.30;99.90
37426;DHT22;23285;50.180;7.036;2022-10-16T09:00:13;15.60;99.90
37426;DHT22;23285;50.180;7.036;2022-10-16T09:03:17;15.70;99.90
37426;DHT22;23285;50.180;7.036;2022-10-16T09:09:15;15.70;99.90
37426;DHT22;23285;50.180;7.036;2022-10-16T09:24:27;16.40;99.90
37426;DHT22;23285;50.180;7.036;2022-10-16T09:27:14;16.30;99.90
37426;DHT22;23285;50.180;7.036;2022-10-16T09:30:15;16.50;99.90
37426;DHT22;23285;50.180;7.036;2022-10-16T09:38:36;16.30;99.90
37426;DHT22;23285;50.180;7.036;2022-10-16T09:41:22;16.40;99.90
37426;DHT22;23285;50.180;7.036;2022-10-16T09:44:46;16.40;99.90
37426;DHT22;23285;50.180;7.036;2022-10-16T09:47:32;16.50;99.90
37426;DHT22;23285;50.180;7.036;2022-10-16T09:53:12;16.50;99.90
37426;DHT22;23285;50.180;7.036;2022-10-16T09:55:58;16.50;99.90
37426;DHT22;23285;50.180;7.036;2022-10-16T09:58:51;16.70;99.90
37426;DHT22;23285;50.180;7.036;2022-10-16T10:01:39;16.80;99.90
37426;DHT22;23285;50.180;7.036;2022-10-16T10:10:29;17.50;99.90
37426;DHT22;23285;50.180;7.036;2022-10-16T10:13:21;17.70;99.90
37426;DHT22;23285;50.180;7.036;2022-10-16T10:16:06;18.00;99.90
37426;DHT22;23285;50.180;7.036;2022-10-16T10:21:43;18.00;99.90
37426;DHT22;23285;50.180;7.036;2022-10-16T10:24:28;18.00;99.90
37426;DHT22;23285;50.180;7.036;2022-10-16T10:33:13;18.10;99.90
37426;DHT22;23285;50.180;7.036;2022-10-16T10:42:33;18.40;99.90
37426;DHT22;23285;50.180;7.036;2022-10-16T10:45:27;18.20;99.90
37426;DHT22;23285;50.180;7.036;2022-10-16T10:57:49;18.70;99.90
37426;DHT22;23285;50.180;7.036;2022-10-16T11:07:04;18.40;99.90
37426;DHT22;23285;50.180;7.036;2022-10-16T11:12:58;18.60;99.90
37426;DHT22;23285;50.180;7.036;2022-10-16T11:27:44;18.70;99.90
37426;DHT22;23285;50.180;7.036;2022-10-16T11:30:39;18.80;99.90
37426;DHT22;23285;50.180;7.036;2022-10-16T11:37:01;18.80;99.90
37426;DHT22;23285;50.180;7.036;2022-10-16T11:39:47;18.60;99.90
37426;DHT22;23285;50.180;7.036;2022-10-16T11:45:29;18.20;99.90
37426;DHT22;23285;50.180;7.036;2022-10-16T11:51:15;18.20;99.90
37426;DHT22;23285;50.180;7.036;2022-10-16T11:57:22;18.60;99.90
37426;DHT22;23285;50.180;7.036;2022-10-16T12:03:48;18.60;99.90
37426;DHT22;23285;50.180;7.036;2022-10-16T12:09:31;18.60;99.90
37426;DHT22;23285;50.180;7.036;2022-10-16T12:15:26;18.60;99.90
37426;DHT22;23285;50.180;7.036;2022-10-16T12:18:22;18.40;99.90
37426;DHT22;23285;50.180;7.036;2022-10-16T12:21:08;18.50;99.90
37426;DHT22;23285;50.180;7.036;2022-10-16T12:24:02;18.60;99.90
37426;DHT22;23285;50.180;7.036;2022-10-16T12:26:50;18.60;99.90
37426;DHT22;23285;50.180;7.036;2022-10-16T12:29:41;18.80;99.90
37426;DHT22;23285;50.180;7.036;2022-10-16T12:32:34;18.90;99.90
37426;DHT22;23285;50.180;7.036;2022-10-16T12:35:23;18.70;99.90
37426;DHT22;23285;50.180;7.036;2022-10-16T12:41:29;18.80;99.90
37426;DHT22;23285;50.180;7.036;2022-10-16T12:44:24;19.10;99.90
37426;DHT22;23285;50.180;7.036;2022-10-16T12:53:24;19.00;99.90
37426;DHT22;23285;50.180;7.036;2022-10-16T12:56:19;18.90;99.90
37426;DHT22;23285;50.180;7.036;2022-10-16T12:59:17;18.90;99.90
37426;DHT22;23285;50.180;7.036;2022-10-16T13:02:14;18.80;99.90
37426;DHT22;23285;50.180;7.036;2022-10-16T13:07:59;18.90;99.90
37426;DHT22;23285;50.180;7.036;2022-10-16T13:31:32;18.80;99.90
37426;DHT22;23285;50.180;7.036;2022-10-16T13:34:21;18.90;99.90
37426;DHT22;23285;50.180;7.036;2022-10-16T13:37:18;19.00;99.90
37426;DHT22;23285;50.180;7.036;2022-10-16T13:40:19;19.30;99.90
37426;DHT22;23285;50.180;7.036;2022-10-16T13:43:04;18.90;99.90
37426;DHT22;23285;50.180;7.036;2022-10-16T13:45:57;19.00;99.90
37426;DHT22;23285;50.180;7.036;2022-10-16T13:48:43;18.90;99.90
37426;DHT22;23285;50.180;7.036;2022-10-16T13:51:30;19.00;99.90
37426;DHT22;23285;50.180;7.036;2022-10-16T13:54:15;18.70;99.90
37426;DHT22;23285;50.180;7.036;2022-10-16T13:57:06;19.30;99.90
37426;DHT22;23285;50.180;7.036;2022-10-16T14:02:39;18.90;99.90
37426;DHT22;23285;50.180;7.036;2022-10-16T14:05:25;19.00;99.90
37426;DHT22;23285;50.180;7.036;2022-10-16T14:08:11;19.20;99.90
37426;DHT22;23285;50.180;7.036;2022-10-16T14:11:00;19.10;99.90
37426;DHT22;23285;50.180;7.036;2022-10-16T14:13:46;19.10;99.90
37426;DHT22;23285;50.180;7.036;2022-10-16T14:16:32;19.20;99.90
37426;DHT22;23285;50.180;7.036;2022-10-16T14:19:28;19.30;99.90
37426;DHT22;23285;50.180;7.036;2022-10-16T14:22:34;19.50;99.90
37426;DHT22;23285;50.180;7.036;2022-10-16T14:30:58;19.50;99.90
37426;DHT22;23285;50.180;7.036;2022-10-16T14:33:43;19.40;99.90
37426;DHT22;23285;50.180;7.036;2022-10-16T14:36:29;19.50;99.90
37426;DHT22;23285;50.180;7.036;2022-10-16T14:42:04;19.50;99.90
37426;DHT22;23285;50.180;7.036;2022-10-16T14:44:58;19.70;99.90
37426;DHT22;23285;50.180;7.036;2022-10-16T14:48:12;19.30;99.90
37426;DHT22;23285;50.180;7.036;2022-10-16T14:50:59;19.70;99.90
37426;DHT22;23285;50.180;7.036;2022-10-16T14:53:45;19.60;99.90
37426;DHT22;23285;50.180;7.036;2022-10-16T14:59:38;19.70;99.90
37426;DHT22;23285;50.180;7.036;2022-10-16T15:02:32;19.50;99.90
37426;DHT22;23285;50.180;7.036;2022-10-16T15:08:04;19.50;99.90
37426;DHT22;23285;50.180;7.036;2022-10-16T15:10:49;19.80;99.90
37426;DHT22;23285;50.180;7.036;2022-10-16T15:16:19;19.50;99.90
37426;DHT22;23285;50.180;7.036;2022-10-16T15:19:05;19.70;99.90
37426;DHT22;23285;50.180;7.036;2022-10-16T15:21:50;19.60;99.90
37426;DHT22;23285;50.180;7.036;2022-10-16T15:24:35;19.60;99.90
37426;DHT22;23285;50.180;7.036;2022-10-16T15:30:06;19.60;99.90
37426;DHT22;23285;50.180;7.036;2022-10-16T15:32:51;19.60;99.90
37426;DHT22;23285;50.180;7.036;2022-10-16T15:35:36;19.60;99.90
37426;DHT22;23285;50.180;7.036;2022-10-16T15:41:08;19.50;99.90
37426;DHT22;23285;50.180;7.036;2022-10-16T15:43:53;19.40;99.90
37426;DHT22;23285;50.180;7.036;2022-10-16T15:46:38;19.50;99.90
37426;DHT22;23285;50.180;7.036;2022-10-16T15:49:22;19.40;99.90
37426;DHT22;23285;50.180;7.036;2022-10-16T15:54:54;19.30;99.90
37426;DHT22;23285;50.180;7.036;2022-10-16T16:00:27;19.50;99.90
37426;DHT22;23285;50.180;7.036;2022-10-16T16:03:13;19.70;99.90
37426;DHT22;23285;50.180;7.036;2022-10-16T16:06:03;19.90;99.90
37426;DHT22;23285;50.180;7.036;2022-10-16T16:11:34;20.00;99.90
37426;DHT22;23285;50.180;7.036;2022-10-16T16:14:22;19.80;99.90
37426;DHT22;23285;50.180;7.036;2022-10-16T16:17:09;19.90;99.90
37426;DHT22;23285;50.180;7.036;2022-10-16T16:19:54;20.00;99.90
37426;DHT22;23285;50.180;7.036;2022-10-16T16:22:39;19.90;99.90
37426;DHT22;23285;50.180;7.036;2022-10-16T16:25:24;19.80;99.90
37426;DHT22;23285;50.180;7.036;2022-10-16T16:28:09;19.90;99.90
37426;DHT22;23285;50.180;7.036;2022-10-16T16:30:55;19.70;99.90
37426;DHT22;23285;50.180;7.036;2022-10-16T16:33:40;19.50;99.90
37426;DHT22;23285;50.180;7.036;2022-10-16T16:36:26;19.30;99.90
37426;DHT22;23285;50.180;7.036;2022-10-16T16:41:57;19.20;99.90
37426;DHT22;23285;50.180;7.036;2022-10-16T16:44:43;18.80;99.90
37426;DHT22;23285;50.180;7.036;2022-10-16T16:47:27;18.70;99.90
37426;DHT22;23285;50.180;7.036;2022-10-16T16:50:12;18.60;99.90
37426;DHT22;23285;50.180;7.036;2022-10-16T16:52:57;18.50;99.90
37426;DHT22;23285;50.180;7.036;2022-10-16T16:55:42;18.50;99.90
37426;DHT22;23285;50.180;7.036;2022-10-16T16:58:27;18.50;99.90
37426;DHT22;23285;50.180;7.036;2022-10-16T17:01:12;18.60;99.90
37426;DHT22;23285;50.180;7.036;2022-10-16T17:03:58;18.50;99.90
37426;DHT22;23285;50.180;7.036;2022-10-16T17:12:17;17.90;99.90
37426;DHT22;23285;50.180;7.036;2022-10-16T17:15:02;17.80;99.90
37426;DHT22;23285;50.180;7.036;2022-10-16T17:17:48;17.70;99.90
37426;DHT22;23285;50.180;7.036;2022-10-16T17:20:35;17.80;99.90
37426;DHT22;23285;50.180;7.036;2022-10-16T17:23:20;17.50;99.90
37426;DHT22;23285;50.180;7.036;2022-10-16T17:26:31;17.10;99.90
37426;DHT22;23285;50.180;7.036;2022-10-16T17:29:18;17.30;99.90
37426;DHT22;23285;50.180;7.036;2022-10-16T17:34:49;17.40;99.90
37426;DHT22;23285;50.180;7.036;2022-10-16T17:45:51;17.40;99.90
37426;DHT22;23285;50.180;7.036;2022-10-16T17:48:38;17.60;99.90
37426;DHT22;23285;50.180;7.036;2022-10-16T17:51:26;17.40;99.90
37426;DHT22;23285;50.180;7.036;2022-10-16T17:54:12;17.50;99.90
37426;DHT22;23285;50.180;7.036;2022-10-16T17:56:58;17.50;99.90
37426;DHT22;23285;50.180;7.036;2022-10-16T17:59:43;17.60;99.90
37426;DHT22;23285;50.180;7.036;2022-10-16T18:02:28;17.50;99.90
37426;DHT22;23285;50.180;7.036;2022-10-16T18:07:59;17.40;99.90
37426;DHT22;23285;50.180;7.036;2022-10-16T18:19:02;17.90;99.90
37426;DHT22;23285;50.180;7.036;2022-10-16T18:21:47;17.70;99.90
37426;DHT22;23285;50.180;7.036;2022-10-16T18:24:32;18.00;99.90
37426;DHT22;23285;50.180;7.036;2022-10-16T18:27:18;17.70;99.90
37426;DHT22;23285;50.180;7.036;2022-10-16T18:30:03;17.40;99.90
37426;DHT22;23285;50.180;7.036;2022-10-16T18:32:49;17.50;99.90
37426;DHT22;23285;50.180;7.036;2022-10-16T18:35:35;17.90;99.90
37426;DHT22;23285;50.180;7.036;2022-10-16T18:38:20;17.60;99.90
37426;DHT22;23285;50.180;7.036;2022-10-16T18:41:06;17.50;99.90
37426;DHT22;23285;50.180;7.036;2022-10-16T18:46:36;17.60;99.90
37426;DHT22;23285;50.180;7.036;2022-10-16T18:52:07;18.10;99.90
37426;DHT22;23285;50.180;7.036;2022-10-16T18:54:55;18.20;99.90
37426;DHT22;23285;50.180;7.036;2022-10-16T19:03:12;17.90;99.90
37426;DHT22;23285;50.180;7.036;2022-10-16T19:06:05;17.60;99.90
37426;DHT22;23285;50.180;7.036;2022-10-16T19:08:50;17.90;99.90
37426;DHT22;23285;50.180;7.036;2022-10-16T19:11:36;17.40;99.90
37426;DHT22;23285;50.180;7.036;2022-10-16T19:14:21;17.40;99.90
37426;DHT22;23285;50.180;7.036;2022-10-16T19:17:06;17.30;99.90
37426;DHT22;23285;50.180;7.036;2022-10-16T19:19:51;17.30;99.90
37426;DHT22;23285;50.180;7.036;2022-10-16T19:22:36;17.40;99.90
37426;DHT22;23285;50.180;7.036;2022-10-16T19:25:42;17.60;99.90
37426;DHT22;23285;50.180;7.036;2022-10-16T19:28:27;17.80;99.90
37426;DHT22;23285;50.180;7.036;2022-10-16T19:31:16;17.90;99.90
37426;DHT22;23285;50.180;7.036;2022-10-16T19:39:33;17.40;99.90
37426;DHT22;23285;50.180;7.036;2022-10-16T19:45:04;17.00;99.90
37426;DHT22;23285;50.180;7.036;2022-10-16T19:47:49;17.30;99.90
37426;DHT22;23285;50.180;7.036;2022-10-16T19:53:20;17.20;99.90
37426;DHT22;23285;50.180;7.036;2022-10-16T19:56:17;17.10;99.90
37426;DHT22;23285;50.180;7.036;2022-10-16T19:59:04;17.10;99.90
37426;DHT22;23285;50.180;7.036;2022-10-16T20:01:50;17.10;99.90
37426;DHT22;23285;50.180;7.036;2022-10-16T20:07:20;17.30;99.90
37426;DHT22;23285;50.180;7.036;2022-10-16T20:10:07;17.20;99.90
37426;DHT22;23285;50.180;7.036;2022-10-16T20:15:38;17.00;99.90
37426;DHT22;23285;50.180;7.036;2022-10-16T20:24:00;17.00;99.90
37426;DHT22;23285;50.180;7.036;2022-10-16T20:26:45;17.00;99.90
37426;DHT22;23285;50.180;7.036;2022-10-16T20:32:16;16.80;99.90
37426;DHT22;23285;50.180;7.036;2022-10-16T20:35:01;16.80;99.90
37426;DHT22;23285;50.180;7.036;2022-10-16T20:37:46;16.60;99.90
37426;DHT22;23285;50.180;7.036;2022-10-16T20:40:37;16.50;99.90
37426;DHT22;23285;50.180;7.036;2022-10-16T20:43:22;16.50;99.90
37426;DHT22;23285;50.180;7.036;2022-10-16T20:46:10;16.60;99.90
37426;DHT22;23285;50.180;7.036;2022-10-16T20:48:58;16.70;99.90
37426;DHT22;23285;50.180;7.036;2022-10-16T20:51:43;16.80;99.90
37426;DHT22;23285;50.180;7.036;2022-10-16T20:54:29;16.80;99.90
37426;DHT22;23285;50.180;7.036;2022-10-16T20:59:59;17.00;99.90
37426;DHT22;23285;50.180;7.036;2022-10-16T21:02:48;16.80;99.90
37426;DHT22;23285;50.180;7.036;2022-10-16T21:05:39;16.80;99.90
37426;DHT22;23285;50.180;7.036;2022-10-16T21:08:25;16.80;99.90
37426;DHT22;23285;50.180;7.036;2022-10-16T21:11:16;16.80;99.90
37426;DHT22;23285;50.180;7.036;2022-10-16T21:14:03;16.90;99.90
37426;DHT22;23285;50.180;7.036;2022-10-16T21:27:50;16.90;99.90
37426;DHT22;23285;50.180;7.036;2022-10-16T21:30:35;16.90;99.90
37426;DHT22;23285;50.180;7.036;2022-10-16T21:33:21;16.90;99.90
37426;DHT22;23285;50.180;7.036;2022-10-16T21:36:14;16.70;99.90
37426;DHT22;23285;50.180;7.036;2022-10-16T21:39:08;16.80;99.90
37426;DHT22;23285;50.180;7.036;2022-10-16T21:41:53;16.90;99.90
37426;DHT22;23285;50.180;7.036;2022-10-16T21:44:38;16.80;99.90
37426;DHT22;23285;50.180;7.036;2022-10-16T21:50:09;16.80;99.90
37426;DHT22;23285;50.180;7.036;2022-10-16T21:55:39;16.70;99.90
37426;DHT22;23285;50.180;7.036;2022-10-16T21:58:25;16.70;99.90
37426;DHT22;23285;50.180;7.036;2022-10-16T22:01:12;17.00;99.90
37426;DHT22;23285;50.180;7.036;2022-10-16T22:03:58;16.80;99.90
37426;DHT22;23285;50.180;7.036;2022-10-16T22:06:43;16.80;99.90
37426;DHT22;23285;50.180;7.036;2022-10-16T22:09:28;16.90;99.90
37426;DHT22;23285;50.180;7.036;2022-10-16T22:12:14;16.70;99.90
37426;DHT22;23285;50.180;7.036;2022-10-16T22:15:03;16.50;99.90
37426;DHT22;23285;50.180;7.036;2022-10-16T22:26:09;16.70;99.90
37426;DHT22;23285;50.180;7.036;2022-10-16T22:28:55;16.50;99.90
37426;DHT22;23285;50.180;7.036;2022-10-16T22:31:41;16.40;99.90
37426;DHT22;23285;50.180;7.036;2022-10-16T22:34:26;16.20;99.90
37426;DHT22;23285;50.180;7.036;2022-10-16T22:37:13;16.20;99.90
37426;DHT22;23285;50.180;7.036;2022-10-16T22:39:58;16.20;99.90
37426;DHT22;23285;50.180;7.036;2022-10-16T22:42:43;16.20;99.90
37426;DHT22;23285;50.180;7.036;2022-10-16T22:45:29;16.20;99.90
37426;DHT22;23285;50.180;7.036;2022-10-16T22:48:15;16.20;99.90
37426;DHT22;23285;50.180;7.036;2022-10-16T22:51:00;16.30;99.90
37426;DHT22;23285;50.180;7.036;2022-10-16T22:53:47;16.20;99.90
37426;DHT22;23285;50.180;7.036;2022-10-16T22:56:32;16.20;99.90
37426;DHT22;23285;50.180;7.036;2022-10-16T23:02:03;16.40;99.90
37426;DHT22;23285;50.180;7.036;2022-10-16T23:04:48;16.10;99.90
37426;DHT22;23285;50.180;7.036;2022-10-16T23:07:34;16.20;99.90
37426;DHT22;23285;50.180;7.036;2022-10-16T23:15:53;16.30;99.90
37426;DHT22;23285;50.180;7.036;2022-10-16T23:26:55;16.20;99.90
37426;DHT22;23285;50.180;7.036;2022-10-16T23:29:40;16.10;99.90
37426;DHT22;23285;50.180;7.036;2022-10-16T23:32:25;16.20;99.90
37426;DHT22;23285;50.180;7.036;2022-10-16T23:35:10;16.20;99.90
37426;DHT22;23285;50.180;7.036;2022-10-16T23:37:55;16.10;99.90
37426;DHT22;23285;50.180;7.036;2022-10-16T23:40:42;16.10;99.90
37426;DHT22;23285;50.180;7.036;2022-10-16T23:43:27;16.00;99.90
37426;DHT22;23285;50.180;7.036;2022-10-16T23:46:13;15.90;99.90
37426;DHT22;23285;50.180;7.036;2022-10-16T23:48:58;15.80;99.90
37426;DHT22;23285;50.180;7.036;2022-10-16T23:51:43;15.80;99.90
37426;DHT22;23285;50.180;7.036;2022-10-16T23:59:59;16.40;99.90
